sensor_id;sensor_type;location;lat;lon;timestamp;pressure;altitude;pressure_sealevel;temperature;humidity
76285;BME280;65096;50.998;7.098;2023-04-08T00:01:50;101515.56;;;8.29;68.73
76285;BME280;65096;50.998;7.098;2023-04-08T00:04:17;101528.41;;;8.29;69.12
76285;BME280;65096;50.998;7.098;2023-04-08T00:06:44;101524.94;;;8.27;69.04
76285;BME280;65096;50.998;7.098;2023-04-08T00:09:11;101524.94;;;8.27;68.66
76285;BME280;65096;50.998;7.098;2023-04-08T00:11:38;101523.06;;;8.21;68.80
76285;BME280;65096;50.998;7.098;2023-04-08T00:14:06;101532.56;;;8.24;68.75
76285;BME280;65096;50.998;7.098;2023-04-08T00:16:33;101523.06;;;8.21;69.07
76285;BME280;65096;50.998;7.098;2023-04-08T00:18:59;101526.50;;;8.22;69.14
76285;BME280;65096;50.998;7.098;2023-04-08T00:21:26;101531.75;;;8.25;68.71
76285;BME280;65096;50.998;7.098;2023-04-08T00:23:53;101531.78;;;8.26;68.74
76285;BME280;65096;50.998;7.098;2023-04-08T00:26:19;101531.78;;;8.26;68.41
76285;BME280;65096;50.998;7.098;2023-04-08T00:28:46;101525.78;;;8.26;68.94
76285;BME280;65096;50.998;7.098;2023-04-08T00:31:14;101528.38;;;8.27;69.02
76285;BME280;65096;50.998;7.098;2023-04-08T00:33:41;101532.63;;;8.27;69.34
76285;BME280;65096;50.998;7.098;2023-04-08T00:36:07;101537.66;;;8.22;68.91
76285;BME280;65096;50.998;7.098;2023-04-08T00:38:34;101531.72;;;8.23;68.99
76285;BME280;65096;50.998;7.098;2023-04-08T00:41:01;101528.25;;;8.23;68.67
76285;BME280;65096;50.998;7.098;2023-04-08T00:43:28;101530.75;;;8.20;68.82
76285;BME280;65096;50.998;7.098;2023-04-08T00:45:54;101532.50;;;8.22;69.03
76285;BME280;65096;50.998;7.098;2023-04-08T00:48:22;101529.91;;;8.21;68.70
76285;BME280;65096;50.998;7.098;2023-04-08T00:50:49;101534.19;;;8.22;68.99
76285;BME280;65096;50.998;7.098;2023-04-08T00:53:17;101513.44;;;8.14;68.94
76285;BME280;65096;50.998;7.098;2023-04-08T00:55:44;101533.47;;;8.26;68.80
76285;BME280;65096;50.998;7.098;2023-04-08T00:58:11;101531.78;;;8.26;68.95
76285;BME280;65096;50.998;7.098;2023-04-08T01:00:42;101533.47;;;8.26;68.51
76285;BME280;65096;50.998;7.098;2023-04-08T01:03:15;101536.03;;;8.26;68.51
76285;BME280;65096;50.998;7.098;2023-04-08T01:05:49;101538.53;;;8.23;68.44
76285;BME280;65096;50.998;7.098;2023-04-08T01:08:20;101532.47;;;8.21;68.38
76285;BME280;65096;50.998;7.098;2023-04-08T01:10:50;101532.44;;;8.19;68.92
76285;BME280;65096;50.998;7.098;2023-04-08T01:13:20;101534.28;;;8.23;68.58
76285;BME280;65096;50.998;7.098;2023-04-08T01:15:49;101539.41;;;8.23;68.48
76285;BME280;65096;50.998;7.098;2023-04-08T01:18:16;101542.78;;;8.22;68.79
76285;BME280;65096;50.998;7.098;2023-04-08T01:20:45;101543.75;;;8.26;68.96
76285;BME280;65096;50.998;7.098;2023-04-08T01:23:20;101544.63;;;8.26;68.83
76285;BME280;65096;50.998;7.098;2023-04-08T01:25:51;101542.91;;;8.27;68.85
76285;BME280;65096;50.998;7.098;2023-04-08T01:28:20;101545.44;;;8.25;69.16
76285;BME280;65096;50.998;7.098;2023-04-08T01:30:48;101547.94;;;8.22;68.80
76285;BME280;65096;50.998;7.098;2023-04-08T01:33:17;101548.72;;;8.20;69.18
76285;BME280;65096;50.998;7.098;2023-04-08T01:35:45;101547.84;;;8.19;69.07
76285;BME280;65096;50.998;7.098;2023-04-08T01:38:15;101542.75;;;8.21;69.13
76285;BME280;65096;50.998;7.098;2023-04-08T01:40:44;101515.75;;;8.05;69.11
76285;BME280;65096;50.998;7.098;2023-04-08T01:43:15;101546.19;;;8.21;69.14
76285;BME280;65096;50.998;7.098;2023-04-08T01:45:43;101544.44;;;8.20;69.16
76285;BME280;65096;50.998;7.098;2023-04-08T01:48:11;101545.28;;;8.19;69.46
76285;BME280;65096;50.998;7.098;2023-04-08T01:50:39;101552.97;;;8.19;69.04
76285;BME280;65096;50.998;7.098;2023-04-08T01:53:08;101553.91;;;8.21;69.57
76285;BME280;65096;50.998;7.098;2023-04-08T01:55:35;101544.31;;;8.16;68.98
76285;BME280;65096;50.998;7.098;2023-04-08T01:58:04;101554.72;;;8.20;69.25
76285;BME280;65096;50.998;7.098;2023-04-08T02:00:34;101548.59;;;8.15;69.71
76285;BME280;65096;50.998;7.098;2023-04-08T02:03:04;101557.09;;;8.14;69.58
76285;BME280;65096;50.998;7.098;2023-04-08T02:05:33;101555.41;;;8.15;69.74
76285;BME280;65096;50.998;7.098;2023-04-08T02:08:02;101555.50;;;8.18;69.82
76285;BME280;65096;50.998;7.098;2023-04-08T02:10:29;101550.28;;;8.15;69.75
76285;BME280;65096;50.998;7.098;2023-04-08T02:12:56;101557.06;;;8.13;69.50
76285;BME280;65096;50.998;7.098;2023-04-08T02:15:24;101559.63;;;8.13;69.42
76285;BME280;65096;50.998;7.098;2023-04-08T02:17:56;101556.22;;;8.14;69.87
76285;BME280;65096;50.998;7.098;2023-04-08T02:20:30;101558.78;;;8.14;69.87
76285;BME280;65096;50.998;7.098;2023-04-08T02:23:02;101556.22;;;8.14;69.99
76285;BME280;65096;50.998;7.098;2023-04-08T02:25:31;101558.03;;;8.16;69.82
76285;BME280;65096;50.998;7.098;2023-04-08T02:28:02;101555.34;;;8.12;69.60
76285;BME280;65096;50.998;7.098;2023-04-08T02:30:30;101556.09;;;8.09;69.97
76285;BME280;65096;50.998;7.098;2023-04-08T02:33:00;101556.09;;;8.09;69.62
76285;BME280;65096;50.998;7.098;2023-04-08T02:35:29;101557.03;;;8.11;69.65
76285;BME280;65096;50.998;7.098;2023-04-08T02:37:56;101547.59;;;8.10;69.49
76285;BME280;65096;50.998;7.098;2023-04-08T02:40:24;101545.72;;;8.06;69.57
76285;BME280;65096;50.998;7.098;2023-04-08T02:42:52;101555.25;;;8.09;69.76
76285;BME280;65096;50.998;7.098;2023-04-08T02:45:19;101552.72;;;8.10;69.48
76285;BME280;65096;50.998;7.098;2023-04-08T02:47:46;101562.13;;;8.10;69.76
76285;BME280;65096;50.998;7.098;2023-04-08T02:50:14;101560.50;;;8.13;69.89
76285;BME280;65096;50.998;7.098;2023-04-08T02:52:41;101555.91;;;8.03;69.98
76285;BME280;65096;50.998;7.098;2023-04-08T02:55:09;101554.19;;;8.02;70.10
76285;BME280;65096;50.998;7.098;2023-04-08T02:57:36;101566.28;;;8.06;69.86
76285;BME280;65096;50.998;7.098;2023-04-08T03:00:04;101559.47;;;8.07;70.21
76285;BME280;65096;50.998;7.098;2023-04-08T03:02:31;101558.66;;;8.09;69.95
76285;BME280;65096;50.998;7.098;2023-04-08T03:04:58;101563.72;;;8.06;69.63
76285;BME280;65096;50.998;7.098;2023-04-08T03:07:26;101551.66;;;8.04;70.19
76285;BME280;65096;50.998;7.098;2023-04-08T03:09:53;101564.63;;;8.08;69.85
76285;BME280;65096;50.998;7.098;2023-04-08T03:12:20;101567.22;;;8.08;69.67
76285;BME280;65096;50.998;7.098;2023-04-08T03:14:47;101565.34;;;8.04;69.83
76285;BME280;65096;50.998;7.098;2023-04-08T03:17:14;101562.78;;;8.04;70.22
76285;BME280;65096;50.998;7.098;2023-04-08T03:19:40;101568.63;;;7.99;70.20
76285;BME280;65096;50.998;7.098;2023-04-08T03:22:07;101569.38;;;7.96;70.66
76285;BME280;65096;50.998;7.098;2023-04-08T03:24:36;101571.25;;;8.00;70.56
76285;BME280;65096;50.998;7.098;2023-04-08T03:27:03;101572.94;;;8.00;70.17
76285;BME280;65096;50.998;7.098;2023-04-08T03:29:30;101567.00;;;8.01;70.48
76285;BME280;65096;50.998;7.098;2023-04-08T03:31:56;101572.88;;;7.98;70.39
76285;BME280;65096;50.998;7.098;2023-04-08T03:34:23;101576.38;;;8.00;70.51
76285;BME280;65096;50.998;7.098;2023-04-08T03:36:50;101582.41;;;8.01;70.20
76285;BME280;65096;50.998;7.098;2023-04-08T03:39:16;101576.41;;;8.02;70.32
76285;BME280;65096;50.998;7.098;2023-04-08T03:41:44;101575.44;;;7.98;70.21
76285;BME280;65096;50.998;7.098;2023-04-08T03:44:11;101569.66;;;8.04;70.03
76285;BME280;65096;50.998;7.098;2023-04-08T03:46:38;101574.75;;;8.02;70.45
76285;BME280;65096;50.998;7.098;2023-04-08T03:49:04;101572.16;;;8.02;70.08
76285;BME280;65096;50.998;7.098;2023-04-08T03:51:31;101573.00;;;8.03;70.43
76285;BME280;65096;50.998;7.098;2023-04-08T03:53:58;101573.84;;;8.02;70.52
76285;BME280;65096;50.998;7.098;2023-04-08T03:56:25;101569.66;;;8.04;70.40
76285;BME280;65096;50.998;7.098;2023-04-08T03:58:53;101572.22;;;8.04;70.30
76285;BME280;65096;50.998;7.098;2023-04-08T04:01:19;101577.44;;;8.07;69.79
76285;BME280;65096;50.998;7.098;2023-04-08T04:03:46;101570.50;;;8.04;70.09
76285;BME280;65096;50.998;7.098;2023-04-08T04:06:13;101559.91;;;7.94;69.76
76285;BME280;65096;50.998;7.098;2023-04-08T04:08:39;101578.94;;;8.00;70.14
76285;BME280;65096;50.998;7.098;2023-04-08T04:11:06;101578.94;;;8.00;69.75
76285;BME280;65096;50.998;7.098;2023-04-08T04:13:33;101584.09;;;8.00;69.96
76285;BME280;65096;50.998;7.098;2023-04-08T04:16:01;101578.06;;;8.00;69.74
76285;BME280;65096;50.998;7.098;2023-04-08T04:18:27;101584.97;;;8.01;69.86
76285;BME280;65096;50.998;7.098;2023-04-08T04:20:54;101584.72;;;7.93;70.61
76285;BME280;65096;50.998;7.098;2023-04-08T04:23:21;101595.88;;;7.94;69.86
76285;BME280;65096;50.998;7.098;2023-04-08T04:25:48;101562.75;;;7.74;70.12
76285;BME280;65096;50.998;7.098;2023-04-08T04:28:15;101591.56;;;7.93;69.91
76285;BME280;65096;50.998;7.098;2023-04-08T04:30:42;101589.03;;;7.94;70.33
76285;BME280;65096;50.998;7.098;2023-04-08T04:33:11;101594.22;;;7.96;70.03
76285;BME280;65096;50.998;7.098;2023-04-08T04:35:38;101594.28;;;7.97;70.14
76285;BME280;65096;50.998;7.098;2023-04-08T04:38:05;101595.91;;;7.95;70.19
76285;BME280;65096;50.998;7.098;2023-04-08T04:40:36;101599.34;;;7.96;70.18
76285;BME280;65096;50.998;7.098;2023-04-08T04:43:03;101601.00;;;7.94;70.27
76285;BME280;65096;50.998;7.098;2023-04-08T04:45:30;101607.06;;;7.96;70.32
76285;BME280;65096;50.998;7.098;2023-04-08T04:47:56;101601.00;;;7.94;69.94
76285;BME280;65096;50.998;7.098;2023-04-08T04:50:25;101602.69;;;7.93;70.51
76285;BME280;65096;50.998;7.098;2023-04-08T04:52:51;101603.53;;;7.92;69.91
76285;BME280;65096;50.998;7.098;2023-04-08T04:55:18;101598.38;;;7.92;70.40
76285;BME280;65096;50.998;7.098;2023-04-08T04:57:46;101606.94;;;7.91;70.23
76285;BME280;65096;50.998;7.098;2023-04-08T05:00:13;101603.44;;;7.89;70.06
76285;BME280;65096;50.998;7.098;2023-04-08T05:02:40;101608.56;;;7.89;70.21
76285;BME280;65096;50.998;7.098;2023-04-08T05:05:07;101605.94;;;7.88;70.40
76285;BME280;65096;50.998;7.098;2023-04-08T05:07:36;101602.47;;;7.86;70.05
76285;BME280;65096;50.998;7.098;2023-04-08T05:10:03;101599.84;;;7.84;69.99
76285;BME280;65096;50.998;7.098;2023-04-08T05:12:31;101607.53;;;7.84;70.55
76285;BME280;65096;50.998;7.098;2023-04-08T05:14:57;101611.84;;;7.85;70.15
76285;BME280;65096;50.998;7.098;2023-04-08T05:17:25;101619.59;;;7.87;69.95
76285;BME280;65096;50.998;7.098;2023-04-08T05:19:51;101614.41;;;7.85;69.76
76285;BME280;65096;50.998;7.098;2023-04-08T05:22:18;101620.38;;;7.84;70.28
76285;BME280;65096;50.998;7.098;2023-04-08T05:24:46;101620.38;;;7.84;70.16
76285;BME280;65096;50.998;7.098;2023-04-08T05:27:13;101628.78;;;7.80;70.09
76285;BME280;65096;50.998;7.098;2023-04-08T05:29:39;101621.75;;;7.73;69.99
76285;BME280;65096;50.998;7.098;2023-04-08T05:32:06;101626.88;;;7.73;69.92
76285;BME280;65096;50.998;7.098;2023-04-08T05:34:33;101633.00;;;7.77;69.58
76285;BME280;65096;50.998;7.098;2023-04-08T05:37:00;101640.78;;;7.80;69.94
76285;BME280;65096;50.998;7.098;2023-04-08T05:39:26;101635.59;;;7.78;69.47
76285;BME280;65096;50.998;7.098;2023-04-08T05:41:54;101642.38;;;7.76;69.81
76285;BME280;65096;50.998;7.098;2023-04-08T05:44:21;101642.31;;;7.74;69.94
76285;BME280;65096;50.998;7.098;2023-04-08T05:46:48;101645.78;;;7.75;69.66
76285;BME280;65096;50.998;7.098;2023-04-08T05:49:14;101650.88;;;7.73;69.58
76285;BME280;65096;50.998;7.098;2023-04-08T05:51:41;101658.44;;;7.72;69.99
76285;BME280;65096;50.998;7.098;2023-04-08T05:54:08;101654.06;;;7.68;69.52
76285;BME280;65096;50.998;7.098;2023-04-08T05:56:35;101656.56;;;7.66;70.00
76285;BME280;65096;50.998;7.098;2023-04-08T05:59:03;101665.84;;;7.63;70.19
76285;BME280;65096;50.998;7.098;2023-04-08T06:01:30;101666.69;;;7.62;69.81
76285;BME280;65096;50.998;7.098;2023-04-08T06:03:56;101666.78;;;7.65;69.08
76285;BME280;65096;50.998;7.098;2023-04-08T06:06:23;101675.25;;;7.62;68.77
76285;BME280;65096;50.998;7.098;2023-04-08T06:08:50;101672.69;;;7.62;69.12
76285;BME280;65096;50.998;7.098;2023-04-08T06:11:17;101679.56;;;7.63;68.58
76285;BME280;65096;50.998;7.098;2023-04-08T06:13:44;101682.09;;;7.62;68.23
76285;BME280;65096;50.998;7.098;2023-04-08T06:16:14;101682.19;;;7.65;68.49
76285;BME280;65096;50.998;7.098;2023-04-08T06:18:41;101683.78;;;7.61;68.89
76285;BME280;65096;50.998;7.098;2023-04-08T06:21:08;101679.44;;;7.59;69.01
76285;BME280;65096;50.998;7.098;2023-04-08T06:23:35;101682.84;;;7.59;69.52
76285;BME280;65096;50.998;7.098;2023-04-08T06:26:02;101681.16;;;7.60;69.72
76285;BME280;65096;50.998;7.098;2023-04-08T06:28:29;101683.88;;;7.64;69.33
76285;BME280;65096;50.998;7.098;2023-04-08T06:30:56;101685.66;;;7.65;68.77
76285;BME280;65096;50.998;7.098;2023-04-08T06:33:24;101682.16;;;7.63;68.82
76285;BME280;65096;50.998;7.098;2023-04-08T06:35:51;101690.59;;;7.61;69.10
76285;BME280;65096;50.998;7.098;2023-04-08T06:38:17;101695.63;;;7.58;69.33
76285;BME280;65096;50.998;7.098;2023-04-08T06:40:44;101701.44;;;7.52;69.69
76285;BME280;65096;50.998;7.098;2023-04-08T06:43:11;101677.13;;;7.41;69.84
76285;BME280;65096;50.998;7.098;2023-04-08T06:45:37;101705.09;;;7.59;69.29
76285;BME280;65096;50.998;7.098;2023-04-08T06:48:04;101704.41;;;7.64;69.67
76285;BME280;65096;50.998;7.098;2023-04-08T06:50:35;101702.72;;;7.65;69.41
76285;BME280;65096;50.998;7.098;2023-04-08T06:53:01;101709.44;;;7.61;69.59
76285;BME280;65096;50.998;7.098;2023-04-08T06:55:28;101712.16;;;7.66;69.49
76285;BME280;65096;50.998;7.098;2023-04-08T06:57:55;101710.38;;;7.63;69.15
76285;BME280;65096;50.998;7.098;2023-04-08T07:00:21;101713.94;;;7.67;69.25
76285;BME280;65096;50.998;7.098;2023-04-08T07:02:50;101708.91;;;7.70;69.05
76285;BME280;65096;50.998;7.098;2023-04-08T07:05:17;101710.44;;;7.65;69.35
76285;BME280;65096;50.998;7.098;2023-04-08T07:07:45;101713.09;;;7.68;69.17
76285;BME280;65096;50.998;7.098;2023-04-08T07:10:11;101694.53;;;7.51;69.39
76285;BME280;65096;50.998;7.098;2023-04-08T07:12:38;101715.47;;;7.62;69.67
76285;BME280;65096;50.998;7.098;2023-04-08T07:15:06;101713.97;;;7.68;69.22
76285;BME280;65096;50.998;7.098;2023-04-08T07:17:33;101707.22;;;7.72;69.10
76285;BME280;65096;50.998;7.098;2023-04-08T07:20:00;101714.22;;;7.74;69.17
76285;BME280;65096;50.998;7.098;2023-04-08T07:22:26;101713.38;;;7.75;69.21
76285;BME280;65096;50.998;7.098;2023-04-08T07:24:54;101723.75;;;7.78;69.35
76285;BME280;65096;50.998;7.098;2023-04-08T07:27:22;101733.22;;;7.80;69.12
76285;BME280;65096;50.998;7.098;2023-04-08T07:29:51;101718.50;;;7.75;68.96
76285;BME280;65096;50.998;7.098;2023-04-08T07:32:18;101728.31;;;7.87;69.13
76285;BME280;65096;50.998;7.098;2023-04-08T07:34:45;101730.69;;;7.81;69.53
76285;BME280;65096;50.998;7.098;2023-04-08T07:37:12;101733.41;;;7.86;69.00
76285;BME280;65096;50.998;7.098;2023-04-08T07:39:38;101732.63;;;7.88;69.11
76285;BME280;65096;50.998;7.098;2023-04-08T07:42:07;101733.50;;;7.89;68.99
76285;BME280;65096;50.998;7.098;2023-04-08T07:44:33;101741.22;;;7.89;69.31
76285;BME280;65096;50.998;7.098;2023-04-08T07:47:00;101743.03;;;7.91;69.40
76285;BME280;65096;50.998;7.098;2023-04-08T07:49:27;101749.06;;;7.93;69.58
76285;BME280;65096;50.998;7.098;2023-04-08T07:51:54;101737.72;;;7.87;69.39
76285;BME280;65096;50.998;7.098;2023-04-08T07:54:21;101750.84;;;7.94;68.87
76285;BME280;65096;50.998;7.098;2023-04-08T07:56:48;101760.28;;;7.95;69.36
76285;BME280;65096;50.998;7.098;2023-04-08T07:59:16;101756.06;;;7.97;68.84
76285;BME280;65096;50.998;7.098;2023-04-08T08:01:43;101765.34;;;7.94;69.10
76285;BME280;65096;50.998;7.098;2023-04-08T08:04:11;101765.50;;;7.98;68.52
76285;BME280;65096;50.998;7.098;2023-04-08T08:06:38;101763.03;;;8.01;68.95
76285;BME280;65096;50.998;7.098;2023-04-08T08:09:04;101753.56;;;7.99;68.88
76285;BME280;65096;50.998;7.098;2023-04-08T08:11:31;101762.19;;;8.01;69.26
76285;BME280;65096;50.998;7.098;2023-04-08T08:13:58;101759.75;;;8.05;69.13
76285;BME280;65096;50.998;7.098;2023-04-08T08:16:28;101769.31;;;8.09;69.10
76285;BME280;65096;50.998;7.098;2023-04-08T08:18:55;101774.44;;;8.09;69.40
76285;BME280;65096;50.998;7.098;2023-04-08T08:21:22;101775.19;;;8.05;69.70
76285;BME280;65096;50.998;7.098;2023-04-08T08:23:50;101784.66;;;8.08;69.57
76285;BME280;65096;50.998;7.098;2023-04-08T08:26:17;101785.56;;;8.08;69.84
76285;BME280;65096;50.998;7.098;2023-04-08T08:28:44;101784.66;;;8.08;69.62
76285;BME280;65096;50.998;7.098;2023-04-08T08:31:10;101786.38;;;8.07;69.63
76285;BME280;65096;50.998;7.098;2023-04-08T08:33:39;101789.59;;;8.02;69.65
76285;BME280;65096;50.998;7.098;2023-04-08T08:36:06;101787.13;;;8.05;69.36
76285;BME280;65096;50.998;7.098;2023-04-08T08:38:32;101790.59;;;8.05;69.76
76285;BME280;65096;50.998;7.098;2023-04-08T08:40:59;101774.00;;;7.96;69.93
76285;BME280;65096;50.998;7.098;2023-04-08T08:43:28;101766.25;;;7.94;69.80
76285;BME280;65096;50.998;7.098;2023-04-08T08:45:58;101778.44;;;8.01;69.95
76285;BME280;65096;50.998;7.098;2023-04-08T08:48:24;101793.97;;;8.04;69.96
76285;BME280;65096;50.998;7.098;2023-04-08T08:50:53;101790.25;;;7.96;69.91
76285;BME280;65096;50.998;7.098;2023-04-08T08:53:19;101793.81;;;8.00;69.56
76285;BME280;65096;50.998;7.098;2023-04-08T08:55:47;101795.41;;;7.96;70.08
76285;BME280;65096;50.998;7.098;2023-04-08T08:58:14;101787.69;;;7.96;69.95
76285;BME280;65096;50.998;7.098;2023-04-08T09:00:41;101793.00;;;8.01;69.99
76285;BME280;65096;50.998;7.098;2023-04-08T09:03:16;101792.22;;;8.03;69.78
76285;BME280;65096;50.998;7.098;2023-04-08T09:05:47;101795.53;;;7.99;69.84
76285;BME280;65096;50.998;7.098;2023-04-08T09:08:26;101796.19;;;7.94;70.09
76285;BME280;65096;50.998;7.098;2023-04-08T09:10:53;101802.31;;;7.97;69.69
76285;BME280;65096;50.998;7.098;2023-04-08T09:13:21;101808.47;;;8.02;69.38
76285;BME280;65096;50.998;7.098;2023-04-08T09:16:02;101801.91;;;8.10;70.41
76285;BME280;65096;50.998;7.098;2023-04-08T09:18:29;101803.63;;;8.11;69.93
76285;BME280;65096;50.998;7.098;2023-04-08T09:20:58;101808.88;;;8.14;69.87
76285;BME280;65096;50.998;7.098;2023-04-08T09:23:38;101804.97;;;8.25;70.01
76285;BME280;65096;50.998;7.098;2023-04-08T09:26:07;101805.00;;;8.27;69.19
76285;BME280;65096;50.998;7.098;2023-04-08T09:28:34;101811.22;;;8.33;69.37
76285;BME280;65096;50.998;7.098;2023-04-08T09:31:17;101802.91;;;8.40;69.86
76285;BME280;65096;50.998;7.098;2023-04-08T09:33:44;101806.53;;;8.47;69.09
76285;BME280;65096;50.998;7.098;2023-04-08T09:36:11;101811.22;;;8.58;69.96
76285;BME280;65096;50.998;7.098;2023-04-08T09:38:40;101802.75;;;8.62;69.93
76285;BME280;65096;50.998;7.098;2023-04-08T09:41:07;101811.56;;;8.70;69.15
76285;BME280;65096;50.998;7.098;2023-04-08T09:43:35;101807.72;;;8.84;68.75
76285;BME280;65096;50.998;7.098;2023-04-08T09:46:07;101799.38;;;8.91;68.19
76285;BME280;65096;50.998;7.098;2023-04-08T09:48:39;101806.59;;;9.03;68.49
76285;BME280;65096;50.998;7.098;2023-04-08T09:51:11;101813.25;;;8.96;67.37
76285;BME280;65096;50.998;7.098;2023-04-08T09:53:46;101805.94;;;9.10;67.59
76285;BME280;65096;50.998;7.098;2023-04-08T09:56:16;101803.91;;;9.27;67.30
76285;BME280;65096;50.998;7.098;2023-04-08T09:58:50;101803.44;;;9.40;67.15
76285;BME280;65096;50.998;7.098;2023-04-08T10:01:23;101808.63;;;9.41;66.18
76285;BME280;65096;50.998;7.098;2023-04-08T10:03:53;101797.72;;;9.50;66.26
76285;BME280;65096;50.998;7.098;2023-04-08T10:06:26;101790.84;;;9.50;64.77
76285;BME280;65096;50.998;7.098;2023-04-08T10:08:56;101791.88;;;9.57;65.57
76285;BME280;65096;50.998;7.098;2023-04-08T10:11:23;101797.34;;;9.67;65.56
76285;BME280;65096;50.998;7.098;2023-04-08T10:13:50;101800.13;;;9.75;65.49
76285;BME280;65096;50.998;7.098;2023-04-08T10:16:19;101796.25;;;9.90;65.59
76285;BME280;65096;50.998;7.098;2023-04-08T10:18:46;101796.44;;;9.98;64.75
76285;BME280;65096;50.998;7.098;2023-04-08T10:21:33;101800.84;;;10.02;63.22
76285;BME280;65096;50.998;7.098;2023-04-08T10:24:02;101812.06;;;10.04;64.48
76285;BME280;65096;50.998;7.098;2023-04-08T10:26:38;101813.00;;;10.07;64.07
76285;BME280;65096;50.998;7.098;2023-04-08T10:29:30;101808.81;;;10.11;64.53
76285;BME280;65096;50.998;7.098;2023-04-08T10:31:58;101814.16;;;10.18;64.13
76285;BME280;65096;50.998;7.098;2023-04-08T10:34:26;101815.03;;;10.19;62.85
76285;BME280;65096;50.998;7.098;2023-04-08T10:36:55;101811.56;;;10.17;61.67
76285;BME280;65096;50.998;7.098;2023-04-08T10:39:25;101812.41;;;10.17;63.02
76285;BME280;65096;50.998;7.098;2023-04-08T10:41:53;101806.34;;;10.15;63.34
76285;BME280;65096;50.998;7.098;2023-04-08T10:44:21;101810.78;;;10.21;62.03
76285;BME280;65096;50.998;7.098;2023-04-08T10:46:49;101803.84;;;10.18;62.30
76285;BME280;65096;50.998;7.098;2023-04-08T10:49:16;101804.72;;;10.19;60.25
76285;BME280;65096;50.998;7.098;2023-04-08T10:51:43;101797.72;;;10.13;61.31
76285;BME280;65096;50.998;7.098;2023-04-08T10:54:12;101791.97;;;10.25;61.58
76285;BME280;65096;50.998;7.098;2023-04-08T10:56:44;101793.16;;;10.36;59.53
76285;BME280;65096;50.998;7.098;2023-04-08T10:59:12;101790.31;;;10.61;61.48
76285;BME280;65096;50.998;7.098;2023-04-08T11:01:42;101790.34;;;11.00;60.90
76285;BME280;65096;50.998;7.098;2023-04-08T11:04:16;101786.22;;;11.08;59.86
76285;BME280;65096;50.998;7.098;2023-04-08T11:06:45;101792.09;;;11.02;59.61
76285;BME280;65096;50.998;7.098;2023-04-08T11:09:13;101786.09;;;11.02;59.37
76285;BME280;65096;50.998;7.098;2023-04-08T11:11:41;101781.81;;;11.04;59.72
76285;BME280;65096;50.998;7.098;2023-04-08T11:14:09;101789.66;;;11.08;59.61
76285;BME280;65096;50.998;7.098;2023-04-08T11:16:36;101793.16;;;11.10;59.34
76285;BME280;65096;50.998;7.098;2023-04-08T11:19:04;101785.91;;;10.94;51.25
76285;BME280;65096;50.998;7.098;2023-04-08T11:21:31;101781.75;;;11.01;58.14
76285;BME280;65096;50.998;7.098;2023-04-08T11:24:05;101781.81;;;11.04;56.55
76285;BME280;65096;50.998;7.098;2023-04-08T11:26:32;101787.25;;;11.16;57.42
76285;BME280;65096;50.998;7.098;2023-04-08T11:28:59;101787.16;;;11.11;57.53
76285;BME280;65096;50.998;7.098;2023-04-08T11:31:27;101778.63;;;11.15;52.88
76285;BME280;65096;50.998;7.098;2023-04-08T11:33:54;101785.38;;;11.09;55.73
76285;BME280;65096;50.998;7.098;2023-04-08T11:36:21;101789.50;;;11.01;53.41
76285;BME280;65096;50.998;7.098;2023-04-08T11:38:48;101786.00;;;10.99;56.08
76285;BME280;65096;50.998;7.098;2023-04-08T11:41:15;101785.75;;;10.87;50.95
76285;BME280;65096;50.998;7.098;2023-04-08T11:43:55;101779.59;;;10.80;51.83
76285;BME280;65096;50.998;7.098;2023-04-08T11:46:22;101784.09;;;10.89;54.60
76285;BME280;65096;50.998;7.098;2023-04-08T11:49:08;101783.28;;;10.91;52.21
76285;BME280;65096;50.998;7.098;2023-04-08T11:51:54;101782.47;;;10.94;55.44
76285;BME280;65096;50.998;7.098;2023-04-08T11:54:25;101782.41;;;10.92;54.83
76285;BME280;65096;50.998;7.098;2023-04-08T11:56:53;101772.81;;;10.85;54.94
76285;BME280;65096;50.998;7.098;2023-04-08T11:59:20;101776.38;;;10.90;53.95
76285;BME280;65096;50.998;7.098;2023-04-08T12:01:47;101780.00;;;10.98;51.13
76285;BME280;65096;50.998;7.098;2023-04-08T12:04:15;101775.00;;;11.06;52.74
76285;BME280;65096;50.998;7.098;2023-04-08T12:06:41;101779.41;;;11.11;50.98
76285;BME280;65096;50.998;7.098;2023-04-08T12:09:11;101783.72;;;11.12;53.98
76285;BME280;65096;50.998;7.098;2023-04-08T12:11:38;101783.72;;;11.12;54.07
76285;BME280;65096;50.998;7.098;2023-04-08T12:14:05;101784.78;;;11.22;53.06
76285;BME280;65096;50.998;7.098;2023-04-08T12:16:31;101787.28;;;11.17;52.63
76285;BME280;65096;50.998;7.098;2023-04-08T12:18:58;101777.75;;;11.15;52.80
76285;BME280;65096;50.998;7.098;2023-04-08T12:21:26;101785.63;;;11.19;51.54
76285;BME280;65096;50.998;7.098;2023-04-08T12:23:53;101782.22;;;11.22;52.10
76285;BME280;65096;50.998;7.098;2023-04-08T12:26:19;101792.59;;;11.25;51.92
76285;BME280;65096;50.998;7.098;2023-04-08T12:28:46;101790.88;;;11.24;52.97
76285;BME280;65096;50.998;7.098;2023-04-08T12:31:13;101788.97;;;11.17;51.58
76285;BME280;65096;50.998;7.098;2023-04-08T12:33:39;101786.41;;;11.17;50.40
76285;BME280;65096;50.998;7.098;2023-04-08T12:36:06;101789.88;;;11.17;50.33
76285;BME280;65096;50.998;7.098;2023-04-08T12:38:34;101791.56;;;11.17;51.01
76285;BME280;65096;50.998;7.098;2023-04-08T12:41:01;101787.28;;;11.17;50.92
76285;BME280;65096;50.998;7.098;2023-04-08T12:43:28;101780.44;;;11.19;51.02
76285;BME280;65096;50.998;7.098;2023-04-08T12:45:57;101782.94;;;11.16;51.68
76285;BME280;65096;50.998;7.098;2023-04-08T12:48:23;101774.47;;;11.22;52.82
76285;BME280;65096;50.998;7.098;2023-04-08T12:50:50;101777.91;;;11.21;51.82
76285;BME280;65096;50.998;7.098;2023-04-08T12:53:17;101772.03;;;11.29;51.71
76285;BME280;65096;50.998;7.098;2023-04-08T12:55:45;101772.53;;;11.12;51.43
76285;BME280;65096;50.998;7.098;2023-04-08T12:58:12;101776.09;;;11.18;52.33
76285;BME280;65096;50.998;7.098;2023-04-08T13:00:41;101778.63;;;11.15;52.66
76285;BME280;65096;50.998;7.098;2023-04-08T13:03:11;101763.97;;;11.13;52.24